createdAt,value
2022-08-17T00:01:29.635Z,41.85
2022-08-17T00:03:58.877Z,44.25
2022-08-17T00:06:28.048Z,44.40
2022-08-17T00:09:02.611Z,46.10
2022-08-17T00:11:35.106Z,44.20
2022-08-17T00:14:14.315Z,44.67
2022-08-17T00:16:55.440Z,49.92
2022-08-17T00:19:24.678Z,49.80
2022-08-17T00:22:33.753Z,50.92
2022-08-17T00:24:39.584Z,53.47
2022-08-17T00:27:06.447Z,55.78
2022-08-17T00:29:33.349Z,51.80
2022-08-17T00:33:11.806Z,52.05
2022-08-17T00:34:49.012Z,54.85
2022-08-17T00:37:15.850Z,62.10
2022-08-17T00:39:42.742Z,58.08
2022-08-17T00:42:17.449Z,59.15
2022-08-17T00:44:44.680Z,61.88
2022-08-17T00:47:11.491Z,62.83
2022-08-17T00:49:38.367Z,61.05
2022-08-17T00:52:11.812Z,64.38
2022-08-17T00:54:41.830Z,61.10
2022-08-17T00:57:10.180Z,64.90
2022-08-17T00:59:42.864Z,70.35
2022-08-17T01:02:10.225Z,68.60
2022-08-17T01:04:37.075Z,71.95
2022-08-17T01:07:04.468Z,71.10
2022-08-17T01:09:31.523Z,73.22
2022-08-17T01:11:58.424Z,66.07
2022-08-17T01:14:25.557Z,68.03
2022-08-17T01:16:54.214Z,69.70
2022-08-17T01:19:32.581Z,70.65
2022-08-17T01:22:10.808Z,70.05
2022-08-17T01:24:39.597Z,70.93
2022-08-17T01:27:10.282Z,68.38
2022-08-17T01:29:38.660Z,70.13
2022-08-17T01:32:06.087Z,70.47
2022-08-17T01:34:42.352Z,73.50
2022-08-17T01:37:10.869Z,72.22
2022-08-17T01:39:39.258Z,71.65
2022-08-17T01:42:12.306Z,70.10
2022-08-17T01:44:41.097Z,72.18
2022-08-17T01:47:07.949Z,70.07
2022-08-17T01:49:34.874Z,69.80
2022-08-17T01:52:08.615Z,64.22
2022-08-17T01:54:35.743Z,56.97
2022-08-17T01:57:02.683Z,51.63
2022-08-17T01:59:29.609Z,50.95
2022-08-17T02:01:56.586Z,45.95
2022-08-17T02:04:23.458Z,46.40
2022-08-17T02:06:53.639Z,45.88
2022-08-17T02:09:25.873Z,47.80
2022-08-17T02:11:54.312Z,47.17
2022-08-17T02:14:21.202Z,51.08
2022-08-17T02:16:48.046Z,51.50
2022-08-17T02:19:15.911Z,51.67
2022-08-17T02:21:44.490Z,51.28
2022-08-17T02:24:15.104Z,52.17
2022-08-17T02:26:42.123Z,54.70
2022-08-17T02:29:09.057Z,54.47
2022-08-17T02:31:37.867Z,54.13
2022-08-17T02:34:05.409Z,55.38
2022-08-17T02:36:33.665Z,54.15
2022-08-17T02:39:02.434Z,51.60
2022-08-17T02:41:29.322Z,53.58
2022-08-17T02:43:57.181Z,55.30
2022-08-17T02:46:25.115Z,53.75
2022-08-17T02:48:52.007Z,55.65
2022-08-17T02:51:18.822Z,48.80
2022-08-17T02:53:46.817Z,50.80
2022-08-17T02:56:13.686Z,47.03
2022-08-17T02:58:40.626Z,46.03
2022-08-17T03:01:08.432Z,46.60
2022-08-17T03:03:35.812Z,47.47
2022-08-17T03:06:02.922Z,45.75
2022-08-17T03:08:30.009Z,43.92
2022-08-17T03:10:56.851Z,45.20
2022-08-17T03:13:23.680Z,46.28
2022-08-17T03:15:50.754Z,45.38
2022-08-17T03:18:25.510Z,44.75
2022-08-17T03:20:55.370Z,44.53
2022-08-17T03:23:24.051Z,44.22
2022-08-17T03:25:53.110Z,41.95
2022-08-17T03:28:20.529Z,44.88
2022-08-17T03:30:47.421Z,40.00
2022-08-17T03:33:14.471Z,44.08
2022-08-17T03:35:41.509Z,44.25
2022-08-17T03:38:10.563Z,50.15
2022-08-17T03:40:57.380Z,55.63
2022-08-17T03:43:24.506Z,56.55
2022-08-17T03:46:27.090Z,61.33
2022-08-17T03:49:15.175Z,61.45
2022-08-17T03:52:00.330Z,59.05
2022-08-17T03:54:45.651Z,56.92
2022-08-17T03:57:12.656Z,61.20
2022-08-17T03:59:39.635Z,66.85
2022-08-17T04:02:24.353Z,67.55
2022-08-17T04:04:52.300Z,70.45
2022-08-17T04:07:20.315Z,73.10
2022-08-17T04:09:47.299Z,65.07
2022-08-17T04:12:16.156Z,60.15
2022-08-17T04:14:53.619Z,65.43
2022-08-17T04:17:26.529Z,66.72
2022-08-17T04:19:53.670Z,69.05
2022-08-17T04:22:33.318Z,76.13
2022-08-17T04:25:09.718Z,66.43
2022-08-17T04:27:36.596Z,66.10
2022-08-17T04:30:04.247Z,61.22
2022-08-17T04:33:04.552Z,61.83
2022-08-17T04:35:25.739Z,62.63
2022-08-17T04:37:52.622Z,60.03
2022-08-17T04:40:38.414Z,64.03
2022-08-17T04:43:07.405Z,62.35
2022-08-17T04:45:34.491Z,60.25
2022-08-17T04:48:01.442Z,60.13
2022-08-17T04:50:28.342Z,57.47
2022-08-17T04:52:55.650Z,57.80
2022-08-17T04:55:22.658Z,56.58
2022-08-17T04:57:49.495Z,60.42
2022-08-17T05:00:16.406Z,60.03
2022-08-17T05:02:50.690Z,58.00
2022-08-17T05:05:27.058Z,58.45
2022-08-17T05:07:58.722Z,57.00
2022-08-17T05:10:27.698Z,55.80
2022-08-17T05:13:01.358Z,54.50
2022-08-17T05:15:28.621Z,54.97
2022-08-17T05:18:00.126Z,55.03
2022-08-17T05:20:27.108Z,49.55
2022-08-17T05:22:55.813Z,50.45
2022-08-17T05:25:32.796Z,47.70
2022-08-17T05:28:03.273Z,48.53
2022-08-17T05:30:30.158Z,47.40
2022-08-17T05:33:05.340Z,43.95
2022-08-17T05:35:34.479Z,37.75
2022-08-17T05:38:01.719Z,31.50
2022-08-17T05:40:32.907Z,26.40
2022-08-17T05:43:09.356Z,23.13
2022-08-17T05:45:55.873Z,22.63
2022-08-17T05:48:36.768Z,21.63
2022-08-17T05:51:32.458Z,22.48
2022-08-17T05:54:08.192Z,22.38
2022-08-17T05:56:39.441Z,20.58
2022-08-17T05:59:22.580Z,19.23
2022-08-17T06:02:01.882Z,20.13
2022-08-17T06:04:59.618Z,19.95
2022-08-17T06:07:39.616Z,21.67
2022-08-17T06:10:18.583Z,21.80
2022-08-17T06:13:10.112Z,21.30
2022-08-17T06:15:49.491Z,20.27
2022-08-17T06:18:19.133Z,20.92
2022-08-17T06:20:50.951Z,20.42
2022-08-17T06:23:24.861Z,20.27
2022-08-17T06:25:53.971Z,18.60
2022-08-17T06:28:49.364Z,18.73
2022-08-17T06:31:29.268Z,19.25
2022-08-17T06:33:57.071Z,20.80
2022-08-17T06:36:28.765Z,20.20
2022-08-17T06:39:24.354Z,19.75
2022-08-17T06:42:01.756Z,19.38
2022-08-17T06:44:43.583Z,20.33
2022-08-17T06:47:28.558Z,19.02
2022-08-17T06:50:07.952Z,19.48
2022-08-17T06:52:52.466Z,19.05
2022-08-17T06:55:37.895Z,20.50
2022-08-17T06:58:09.234Z,18.35
2022-08-17T07:00:44.176Z,19.25
2022-08-17T07:03:38.818Z,17.88
2022-08-17T07:06:17.178Z,18.17
2022-08-17T07:08:52.887Z,17.88
2022-08-17T07:11:27.275Z,18.48
2022-08-17T07:14:15.219Z,17.95
2022-08-17T07:16:51.686Z,17.35
2022-08-17T07:19:20.458Z,17.77
2022-08-17T07:22:06.074Z,17.63
2022-08-17T07:24:41.532Z,15.73
2022-08-17T07:27:16.176Z,17.83
2022-08-17T07:29:52.963Z,14.95
2022-08-17T07:32:24.097Z,13.63
2022-08-17T07:35:10.689Z,12.55
2022-08-17T07:37:54.181Z,11.00
2022-08-17T07:40:22.769Z,11.35
2022-08-17T07:43:06.833Z,9.80
2022-08-17T07:45:53.183Z,10.32
2022-08-17T07:48:22.508Z,9.90
2022-08-17T07:50:50.827Z,11.85
2022-08-17T07:53:23.199Z,11.20
2022-08-17T07:55:50.585Z,10.57
2022-08-17T07:58:19.338Z,11.80
2022-08-17T08:00:46.422Z,11.82
2022-08-17T08:03:15.230Z,11.25
2022-08-17T08:05:56.951Z,12.07
2022-08-17T08:08:42.456Z,12.35
2022-08-17T08:11:15.453Z,10.82
2022-08-17T08:13:45.543Z,12.85
2022-08-17T08:16:13.310Z,12.18
2022-08-17T08:18:55.419Z,14.57
2022-08-17T08:21:42.239Z,15.45
2022-08-17T08:24:40.818Z,17.75
2022-08-17T08:27:19.843Z,17.42
2022-08-17T08:30:04.837Z,17.35
2022-08-17T08:32:50.670Z,17.33
2022-08-17T08:35:53.623Z,18.13
2022-08-17T08:38:30.973Z,19.00
2022-08-17T08:40:57.817Z,19.90
2022-08-17T08:43:24.630Z,20.00
2022-08-17T08:46:10.126Z,18.17
2022-08-17T08:48:57.948Z,20.95
2022-08-17T08:51:44.016Z,20.02
2022-08-17T08:54:40.115Z,26.08
2022-08-17T08:57:26.753Z,23.42
2022-08-17T09:00:05.682Z,24.23
2022-08-17T09:02:50.898Z,22.05
2022-08-17T09:05:48.607Z,25.73
2022-08-17T09:08:29.972Z,24.98
2022-08-17T09:12:02.543Z,24.67
2022-08-17T09:14:47.193Z,24.65
2022-08-17T09:17:16.429Z,26.00
2022-08-17T09:19:57.197Z,22.38
2022-08-17T09:22:39.439Z,26.02
2022-08-17T09:25:08.212Z,26.77
2022-08-17T09:27:53.189Z,25.55
2022-08-17T09:30:21.261Z,27.55
2022-08-17T09:32:55.324Z,29.25
2022-08-17T09:35:25.208Z,31.90
2022-08-17T09:38:22.755Z,34.58
2022-08-17T09:41:04.553Z,35.03
2022-08-17T09:43:55.792Z,36.22
2022-08-17T09:46:49.401Z,36.83
2022-08-17T09:49:32.150Z,36.05
2022-08-17T09:52:02.869Z,36.13
2022-08-17T09:54:40.194Z,37.45
2022-08-17T09:57:30.256Z,34.72
2022-08-17T10:00:16.803Z,36.30
2022-08-17T10:03:04.778Z,37.80
2022-08-17T10:05:46.528Z,39.78
2022-08-17T10:08:28.799Z,38.10
2022-08-17T10:11:05.516Z,36.25
2022-08-17T10:13:36.399Z,36.17
2022-08-17T10:16:07.815Z,35.25
2022-08-17T10:18:44.436Z,33.35
2022-08-17T10:21:31.279Z,32.80
2022-08-17T10:24:36.184Z,31.08
2022-08-17T10:27:04.218Z,31.27
2022-08-17T10:29:47.278Z,31.48
2022-08-17T10:32:37.406Z,31.90
2022-08-17T10:35:13.275Z,30.38
2022-08-17T10:37:52.774Z,32.30
2022-08-17T10:40:37.318Z,31.00
2022-08-17T10:43:32.934Z,31.77
2022-08-17T10:46:30.227Z,33.85
2022-08-17T10:49:18.124Z,34.40
2022-08-17T10:51:49.175Z,34.15
2022-08-17T10:54:25.142Z,36.28
2022-08-17T10:56:53.550Z,36.38
2022-08-17T10:59:51.179Z,34.97
2022-08-17T11:02:31.604Z,35.50
2022-08-17T11:05:15.939Z,35.35
2022-08-17T11:07:54.956Z,35.88
2022-08-17T11:10:52.117Z,37.00
2022-08-17T11:13:29.938Z,35.40
2022-08-17T11:16:08.298Z,40.38
2022-08-17T11:19:12.891Z,38.40
2022-08-17T11:22:11.770Z,38.75
2022-08-17T11:24:48.185Z,39.50
2022-08-17T11:27:31.435Z,42.53
2022-08-17T11:30:11.241Z,45.35
2022-08-17T11:32:52.012Z,45.22
2022-08-17T11:35:21.405Z,46.47
2022-08-17T11:38:13.999Z,47.30
2022-08-17T11:41:13.568Z,47.05
2022-08-17T11:44:02.158Z,46.72
2022-08-17T11:46:56.711Z,46.83
2022-08-17T11:49:54.743Z,43.83
2022-08-17T11:52:42.321Z,40.60
2022-08-17T11:55:40.555Z,38.20
2022-08-17T11:58:44.537Z,38.45
2022-08-17T12:01:31.659Z,36.17
2022-08-17T12:04:26.635Z,37.17
2022-08-17T12:07:07.193Z,35.95
2022-08-17T12:09:34.540Z,36.33
2022-08-17T12:12:14.559Z,35.03
2022-08-17T12:15:11.155Z,34.83
2022-08-17T12:17:40.467Z,35.28
2022-08-17T12:20:28.570Z,32.17
2022-08-17T12:23:04.930Z,32.50
2022-08-17T12:25:42.098Z,31.88
2022-08-17T12:28:29.562Z,30.55
2022-08-17T12:31:19.222Z,29.38
2022-08-17T12:33:46.410Z,29.35
2022-08-17T12:36:17.419Z,26.23
2022-08-17T12:38:51.043Z,25.30
2022-08-17T12:41:34.201Z,25.25
2022-08-17T12:44:18.257Z,23.83
2022-08-17T12:46:46.569Z,24.85
2022-08-17T12:49:22.996Z,23.17
2022-08-17T12:51:50.295Z,25.00
2022-08-17T12:54:33.707Z,25.33
2022-08-17T12:57:05.605Z,25.52
2022-08-17T12:59:33.248Z,27.48
2022-08-17T13:02:00.296Z,27.58
2022-08-17T13:04:29.687Z,27.40
2022-08-17T13:06:59.682Z,27.02
2022-08-17T13:09:33.578Z,25.30
2022-08-17T13:12:03.286Z,26.35
2022-08-17T13:14:33.277Z,25.00
2022-08-17T13:17:01.714Z,24.20
2022-08-17T13:19:41.031Z,25.05
2022-08-17T13:22:11.416Z,26.00
2022-08-17T13:24:39.283Z,26.83
2022-08-17T13:27:08.502Z,25.67
2022-08-17T13:29:45.804Z,24.38
2022-08-17T13:32:31.160Z,26.95
2022-08-17T13:35:12.325Z,26.00
2022-08-17T13:37:55.329Z,25.48
2022-08-17T13:40:22.144Z,26.92
2022-08-17T13:42:52.644Z,26.42
2022-08-17T13:45:36.003Z,26.65
2022-08-17T13:48:17.062Z,24.52
2022-08-17T13:50:54.467Z,26.40
2022-08-17T13:53:24.069Z,26.77
2022-08-17T13:55:52.982Z,25.60
2022-08-17T13:58:27.287Z,23.33
2022-08-17T14:00:54.427Z,22.33
2022-08-17T14:03:21.339Z,23.10
2022-08-17T14:05:48.654Z,23.15
2022-08-17T14:08:16.115Z,22.42
2022-08-17T14:10:45.038Z,23.83
2022-08-17T14:13:13.365Z,22.88
2022-08-17T14:15:55.316Z,23.88
2022-08-17T14:18:50.535Z,20.88
2022-08-17T14:21:10.690Z,20.92
2022-08-17T14:23:37.676Z,21.27
2022-08-17T14:26:04.942Z,20.27
2022-08-17T14:28:32.863Z,22.13
2022-08-17T14:31:03.207Z,20.88
2022-08-17T14:33:30.087Z,21.58
2022-08-17T14:35:57.685Z,20.45
2022-08-17T14:38:24.830Z,19.75
2022-08-17T14:40:51.759Z,20.92
2022-08-17T14:43:18.766Z,21.33
2022-08-17T14:45:47.057Z,19.73
2022-08-17T14:48:13.966Z,21.38
2022-08-17T14:50:41.872Z,20.90
2022-08-17T14:53:10.048Z,21.10
2022-08-17T14:55:39.882Z,21.98
2022-08-17T14:58:07.625Z,21.05
2022-08-17T15:00:34.493Z,20.67
2022-08-17T15:03:01.539Z,21.40
2022-08-17T15:05:33.758Z,20.05
2022-08-17T15:08:01.368Z,20.27
2022-08-17T15:10:29.163Z,20.60
2022-08-17T15:12:56.323Z,19.92
2022-08-17T15:15:23.499Z,21.10
2022-08-17T15:17:51.398Z,23.50
2022-08-17T15:20:20.846Z,20.95
2022-08-17T15:22:49.829Z,19.17
2022-08-17T15:25:17.728Z,18.95
2022-08-17T15:27:44.628Z,16.95
2022-08-17T15:30:12.047Z,20.67
2022-08-17T15:32:41.085Z,18.35
2022-08-17T15:35:17.907Z,17.13
2022-08-17T15:37:44.910Z,17.30
2022-08-17T15:40:12.564Z,15.73
2022-08-17T15:42:40.419Z,16.33
2022-08-17T15:45:10.504Z,15.65
2022-08-17T15:47:37.609Z,15.75
2022-08-17T15:50:06.429Z,17.05
2022-08-17T15:52:38.026Z,16.70
2022-08-17T15:55:05.675Z,18.27
2022-08-17T15:57:33.382Z,17.35
2022-08-17T16:00:00.269Z,16.55
2022-08-17T16:03:46.006Z,17.25
2022-08-17T16:05:24.015Z,15.93
2022-08-17T16:07:51.322Z,17.40
2022-08-17T16:10:19.178Z,16.95
2022-08-17T16:12:47.248Z,18.00
2022-08-17T16:15:14.426Z,17.35
2022-08-17T16:17:44.374Z,17.55
2022-08-17T16:20:20.011Z,19.63
2022-08-17T16:22:48.369Z,19.75
2022-08-17T16:25:19.000Z,17.13
2022-08-17T16:27:46.675Z,17.05
2022-08-17T16:30:17.343Z,16.00
2022-08-17T16:32:44.811Z,15.88
2022-08-17T16:35:12.162Z,16.42
2022-08-17T16:37:40.381Z,16.63
2022-08-17T16:40:13.051Z,16.00
2022-08-17T16:42:40.159Z,19.58
2022-08-17T16:45:13.423Z,19.63
2022-08-17T16:47:41.385Z,19.85
2022-08-17T16:50:09.552Z,21.60
2022-08-17T16:52:36.756Z,23.58
2022-08-17T16:55:04.111Z,23.23
2022-08-17T16:57:31.037Z,21.63
2022-08-17T16:59:57.930Z,22.02
2022-08-17T17:02:30.530Z,21.35
2022-08-17T17:05:19.285Z,19.13
2022-08-17T17:07:55.490Z,14.00
2022-08-17T17:10:40.930Z,12.45
2022-08-17T17:13:09.961Z,10.48
2022-08-17T17:16:01.339Z,11.77
2022-08-17T17:19:04.735Z,9.48
2022-08-17T17:21:47.345Z,9.85
2022-08-17T17:24:41.891Z,9.68
2022-08-17T17:27:32.547Z,10.02
2022-08-17T17:30:15.687Z,9.95
2022-08-17T17:32:46.667Z,9.63
2022-08-17T17:35:33.090Z,10.35
2022-08-17T17:38:04.156Z,9.85
2022-08-17T17:40:47.816Z,10.07
2022-08-17T17:43:37.631Z,8.82
2022-08-17T17:46:27.018Z,9.18
2022-08-17T17:48:55.251Z,9.18
2022-08-17T17:51:54.692Z,9.20
2022-08-17T17:54:24.383Z,10.23
2022-08-17T17:56:58.435Z,9.75
2022-08-17T17:59:44.071Z,9.18
2022-08-17T18:02:45.057Z,9.80
2022-08-17T18:05:37.227Z,10.13
2022-08-17T18:08:35.212Z,11.30
2022-08-17T18:11:11.503Z,11.05
2022-08-17T18:13:44.000Z,10.82
2022-08-17T18:16:13.255Z,10.73
2022-08-17T18:18:44.539Z,11.32
2022-08-17T18:21:19.318Z,10.85
2022-08-17T18:23:56.667Z,12.43
2022-08-17T18:26:47.191Z,11.15
2022-08-17T18:29:37.566Z,12.15
2022-08-17T18:32:23.087Z,12.02
2022-08-17T18:34:52.858Z,11.95
2022-08-17T18:37:38.369Z,12.77
2022-08-17T18:40:17.341Z,10.50
2022-08-17T18:43:03.351Z,13.32
2022-08-17T18:45:47.451Z,15.25
2022-08-17T18:48:33.490Z,16.05
2022-08-17T18:51:20.223Z,15.73
2022-08-17T18:54:25.143Z,15.68
2022-08-17T18:56:55.147Z,14.23
2022-08-17T18:59:42.190Z,14.68
2022-08-17T19:02:20.690Z,13.80
2022-08-17T19:05:09.113Z,13.30
2022-08-17T19:07:41.570Z,12.68
2022-08-17T19:10:20.400Z,13.20
2022-08-17T19:13:12.929Z,12.13
2022-08-17T19:16:11.682Z,11.98
2022-08-17T19:18:58.926Z,10.98
2022-08-17T19:21:41.383Z,11.07
2022-08-17T19:24:12.376Z,10.45
2022-08-17T19:26:54.600Z,10.50
2022-08-17T19:29:41.009Z,11.20
2022-08-17T19:32:08.953Z,11.23
2022-08-17T19:34:36.579Z,10.07
2022-08-17T19:37:23.448Z,11.35
2022-08-17T19:39:56.152Z,10.90
2022-08-17T19:42:31.141Z,11.48
2022-08-17T19:45:06.549Z,11.20
2022-08-17T19:48:04.598Z,10.15
2022-08-17T19:50:43.951Z,11.02
2022-08-17T19:53:47.403Z,11.88
2022-08-17T19:56:31.663Z,16.95
2022-08-17T19:59:01.466Z,18.05
2022-08-17T20:02:03.018Z,17.95
2022-08-17T20:04:32.370Z,19.33
2022-08-17T20:07:23.370Z,18.42
2022-08-17T20:09:54.722Z,15.52
2022-08-17T20:12:33.386Z,14.90
2022-08-17T20:15:30.445Z,15.20
2022-08-17T20:17:58.813Z,17.38
2022-08-17T20:21:07.159Z,19.27
2022-08-17T20:23:51.000Z,17.77
2022-08-17T20:26:20.923Z,18.45
2022-08-17T20:29:09.174Z,16.23
2022-08-17T20:31:59.242Z,17.63
2022-08-17T20:34:37.162Z,15.52
2022-08-17T20:37:14.591Z,17.25
2022-08-17T20:40:09.138Z,14.13
2022-08-17T20:42:36.325Z,14.82
2022-08-17T20:45:26.441Z,15.32
2022-08-17T20:48:20.051Z,14.95
2022-08-17T20:50:47.115Z,15.88
2022-08-17T20:53:36.647Z,15.40
2022-08-17T20:56:03.585Z,15.63
2022-08-17T20:58:31.195Z,14.68
2022-08-17T21:00:59.038Z,15.15
2022-08-17T21:03:51.186Z,15.70
2022-08-17T21:06:20.495Z,15.90
2022-08-17T21:08:54.640Z,17.02
2022-08-17T21:12:03.134Z,19.35
2022-08-17T21:14:36.569Z,17.95
2022-08-17T21:17:35.707Z,19.33
2022-08-17T21:20:22.575Z,19.02
2022-08-17T21:23:20.474Z,19.15
2022-08-17T21:26:09.237Z,18.10
2022-08-17T21:29:30.084Z,18.60
2022-08-17T21:32:03.744Z,18.40
2022-08-17T21:34:33.234Z,19.42
2022-08-17T21:37:18.661Z,17.77
2022-08-17T21:39:51.881Z,16.85
2022-08-17T21:42:29.100Z,17.98
2022-08-17T21:44:59.855Z,16.88
2022-08-17T21:47:28.254Z,17.88
2022-08-17T21:49:55.768Z,17.95
2022-08-17T21:52:23.915Z,17.83
2022-08-17T21:54:55.202Z,18.70
2022-08-17T21:57:27.571Z,19.90
2022-08-17T21:59:59.832Z,19.25
2022-08-17T22:02:35.187Z,20.48
2022-08-17T22:05:07.071Z,20.65
2022-08-17T22:07:42.905Z,20.52
2022-08-17T22:10:30.583Z,21.13
2022-08-17T22:13:04.080Z,21.70
2022-08-17T22:15:31.096Z,22.60
2022-08-17T22:18:01.651Z,24.80
2022-08-17T22:20:28.511Z,24.70
2022-08-17T22:23:13.794Z,26.92
2022-08-17T22:25:56.190Z,25.30
2022-08-17T22:28:42.572Z,23.08
2022-08-17T22:31:10.638Z,26.40
2022-08-17T22:33:41.608Z,23.92
2022-08-17T22:36:22.099Z,22.58
2022-08-17T22:38:49.581Z,24.83
2022-08-17T22:41:25.479Z,22.15
2022-08-17T22:43:52.711Z,22.60
2022-08-17T22:46:21.290Z,21.55
2022-08-17T22:48:50.711Z,23.50
2022-08-17T22:51:22.284Z,21.08
2022-08-17T22:54:11.571Z,22.27
2022-08-17T22:56:56.775Z,20.20
2022-08-17T22:59:43.818Z,19.25
2022-08-17T23:02:29.996Z,21.58
2022-08-17T23:05:13.025Z,20.98
2022-08-17T23:07:40.559Z,21.63
2022-08-17T23:10:09.703Z,17.63
2022-08-17T23:12:39.651Z,18.17
2022-08-17T23:15:14.459Z,19.30
2022-08-17T23:17:42.058Z,18.50
2022-08-17T23:20:12.099Z,19.88
2022-08-17T23:22:51.397Z,20.60
2022-08-17T23:25:26.455Z,22.17
2022-08-17T23:27:53.610Z,21.67
2022-08-17T23:30:20.697Z,22.83
2022-08-17T23:32:53.705Z,23.27
2022-08-17T23:35:21.017Z,24.23
2022-08-17T23:38:10.687Z,21.55
2022-08-17T23:40:39.595Z,21.30
2022-08-17T23:43:16.642Z,20.33
2022-08-17T23:45:50.716Z,20.00
2022-08-17T23:48:35.115Z,17.83
2022-08-17T23:51:04.003Z,18.23
2022-08-17T23:53:32.714Z,17.95
2022-08-17T23:56:09.296Z,17.58
2022-08-17T23:58:42.319Z,18.52
